Time;durP1;ratioP1;P1;durP2;ratioP2;P2;SDS_P1;SDS_P2;PMS_P1;PMS_P2;Temp;Humidity;BMP_temperature;BMP_pressure;BME280_temperature;BME280_humidity;BME280_pressure;Samples;Min_cycle;Max_cycle;Signal;HPM_P1;HPM_P2
2023/02/25 00:02:13;;;;;;;81.35;38.42;;;8.60;99.90;;;;;;4889053;29;20068;-75
2023/02/25 00:04:43;;;;;;;74.63;37.00;;;8.60;99.90;;;;;;4891374;29;20035;-75
2023/02/25 00:07:08;;;;;;;78.07;37.88;;;8.60;99.90;;;;;;4892057;29;20068;-76
2023/02/25 00:09:34;;;;;;;72.88;35.55;;;8.50;99.90;;;;;;4896008;29;20071;-75
2023/02/25 00:12:01;;;;;;;67.78;34.20;;;8.50;99.90;;;;;;4892066;29;20364;-75
2023/02/25 00:14:27;;;;;;;85.68;38.97;;;8.40;99.90;;;;;;4900444;29;20036;-76
2023/02/25 00:16:56;;;;;;;85.75;40.47;;;8.70;99.90;;;;;;4893159;29;20034;-75
2023/02/25 00:19:25;;;;;;;73.50;36.85;;;8.90;99.90;;;;;;4892073;29;20059;-75
2023/02/25 00:21:51;;;;;;;80.28;37.10;;;8.70;99.90;;;;;;4891346;29;20036;-74
2023/02/25 00:24:17;;;;;;;77.82;36.85;;;8.60;99.90;;;;;;4894606;29;20029;-76
2023/02/25 00:26:43;;;;;;;76.53;37.10;;;8.70;99.90;;;;;;4895073;29;20547;-75
2023/02/25 00:29:09;;;;;;;77.60;37.65;;;8.60;99.90;;;;;;4898494;29;20039;-75
2023/02/25 00:31:35;;;;;;;77.40;35.78;;;8.60;99.90;;;;;;4889970;29;20084;-76
2023/02/25 00:34:01;;;;;;;79.57;37.50;;;8.50;99.90;;;;;;4889469;29;20032;-75
2023/02/25 00:36:26;;;;;;;79.32;38.38;;;8.60;99.90;;;;;;4891049;29;20032;-75
2023/02/25 00:38:54;;;;;;;79.95;38.08;;;8.40;99.90;;;;;;4888849;29;20475;-76
2023/02/25 00:41:24;;;;;;;80.43;38.70;;;8.30;99.90;;;;;;4896452;29;20491;-75
2023/02/25 00:43:52;;;;;;;79.35;37.28;;;8.30;99.90;;;;;;4895969;29;20403;-75
2023/02/25 00:46:19;;;;;;;86.85;37.33;;;8.30;99.90;;;;;;4892121;29;20036;-74
2023/02/25 00:48:45;;;;;;;84.20;39.92;;;8.30;99.90;;;;;;4893026;29;20174;-75
2023/02/25 00:51:18;;;;;;;90.40;39.03;;;8.40;99.90;;;;;;4891151;29;20032;-74
2023/02/25 00:53:44;;;;;;;80.85;36.53;;;8.40;99.90;;;;;;4894362;29;20129;-75
2023/02/25 00:56:15;;;;;;;87.82;40.28;;;8.30;99.90;;;;;;4893384;29;20104;-73
2023/02/25 00:58:45;;;;;;;73.53;35.10;;;8.30;99.90;;;;;;4900084;29;20036;-75
2023/02/25 01:01:32;;;;;;;83.18;39.17;;;8.20;99.90;;;;;;4902485;29;20032;-75
2023/02/25 01:03:58;;;;;;;81.55;38.63;;;8.20;99.90;;;;;;4895429;29;20044;-74
2023/02/25 01:06:26;;;;;;;74.82;33.10;;;8.30;99.90;;;;;;4902487;29;20035;-74
2023/02/25 01:08:53;;;;;;;72.78;34.90;;;8.20;99.90;;;;;;4895738;29;20064;-75
2023/02/25 01:11:28;;;;;;;76.20;36.25;;;8.20;99.90;;;;;;4898779;29;20029;-75
2023/02/25 01:13:55;;;;;;;79.63;35.42;;;8.30;99.90;;;;;;4896422;29;20056;-74
2023/02/25 01:16:23;;;;;;;63.78;30.40;;;8.20;99.90;;;;;;4899208;29;20043;-75
2023/02/25 01:18:52;;;;;;;66.47;32.20;;;8.20;99.90;;;;;;4898444;29;20484;-74
2023/02/25 01:21:26;;;;;;;61.50;29.45;;;8.40;99.90;;;;;;4901389;29;20051;-74
2023/02/25 01:24:02;;;;;;;77.47;34.35;;;8.20;99.90;;;;;;4901663;29;20068;-75
2023/02/25 01:26:30;;;;;;;67.55;32.47;;;8.20;99.90;;;;;;4897366;29;20036;-74
2023/02/25 01:28:56;;;;;;;67.40;34.17;;;8.10;99.90;;;;;;4899522;29;20123;-75
2023/02/25 01:31:23;;;;;;;75.05;32.60;;;8.10;99.90;;;;;;4901052;29;20111;-74
2023/02/25 01:33:52;;;;;;;69.22;31.85;;;8.20;99.90;;;;;;4894236;29;20399;-74
2023/02/25 01:36:18;;;;;;;74.05;34.95;;;8.10;99.90;;;;;;4893499;29;20029;-75
2023/02/25 01:38:43;;;;;;;67.93;33.15;;;8.20;99.90;;;;;;4893826;29;20032;-75
2023/02/25 01:41:09;;;;;;;68.20;34.85;;;8.10;99.90;;;;;;4893566;29;20087;-74
2023/02/25 01:43:35;;;;;;;71.68;33.20;;;8.20;99.90;;;;;;4896462;29;20060;-74
2023/02/25 01:46:00;;;;;;;75.32;35.67;;;8.10;99.90;;;;;;4899448;29;20039;-74
2023/02/25 01:48:34;;;;;;;75.53;36.08;;;8.20;99.90;;;;;;4893899;29;20462;-74
2023/02/25 01:51:06;;;;;;;71.93;34.63;;;8.00;99.90;;;;;;4907119;29;20037;-75
2023/02/25 01:53:41;;;;;;;78.55;35.65;;;7.90;99.90;;;;;;4898810;29;20037;-75
2023/02/25 01:56:10;;;;;;;78.20;35.92;;;7.90;99.90;;;;;;4895308;29;20063;-74
2023/02/25 01:58:37;;;;;;;69.43;34.85;;;7.80;99.90;;;;;;4905307;29;20067;-74
2023/02/25 02:01:09;;;;;;;68.53;34.05;;;7.70;99.90;;;;;;4904900;29;20554;-74
2023/02/25 02:03:35;;;;;;;73.93;36.17;;;7.60;99.90;;;;;;4898976;29;20115;-75
2023/02/25 02:06:08;;;;;;;68.43;34.60;;;7.60;99.90;;;;;;4893620;29;20098;-74
2023/02/25 02:08:35;;;;;;;68.53;33.92;;;7.60;99.90;;;;;;4896405;29;20483;-74
2023/02/25 02:11:01;;;;;;;71.65;33.05;;;7.70;99.90;;;;;;4900031;29;20025;-74
2023/02/25 02:13:28;;;;;;;77.20;33.00;;;7.70;99.90;;;;;;4902430;29;20148;-75
2023/02/25 02:16:06;;;;;;;76.03;35.15;;;7.60;99.90;;;;;;4896936;29;20075;-74
2023/02/25 02:18:35;;;;;;;72.90;33.90;;;7.60;99.90;;;;;;4904544;29;20123;-75
2023/02/25 02:21:06;;;;;;;72.38;33.03;;;7.60;99.90;;;;;;4897474;29;20051;-74
2023/02/25 02:23:50;;;;;;;75.07;34.45;;;7.60;99.90;;;;;;4905309;29;20493;-75
2023/02/25 02:26:53;;;;;;;72.95;36.15;;;7.60;99.90;;;;;;4904108;29;20113;-74
2023/02/25 02:29:33;;;;;;;71.38;34.58;;;7.40;99.90;;;;;;4897166;29;20432;-74
2023/02/25 02:32:02;;;;;;;78.07;35.42;;;7.50;99.90;;;;;;4901848;29;20033;-74
2023/02/25 02:34:53;;;;;;;77.82;35.35;;;7.60;99.90;;;;;;4903796;29;20032;-75
2023/02/25 02:37:38;;;;;;;82.88;37.63;;;7.50;99.90;;;;;;4904191;29;20032;-74
2023/02/25 02:40:18;;;;;;;80.18;36.78;;;7.50;99.90;;;;;;4903834;29;20024;-74
2023/02/25 02:43:05;;;;;;;77.38;33.95;;;7.60;99.90;;;;;;4902125;29;20045;-75
2023/02/25 02:45:49;;;;;;;83.50;37.38;;;7.50;99.90;;;;;;4906656;29;20044;-74
2023/02/25 02:48:41;;;;;;;72.70;35.13;;;7.40;99.90;;;;;;4895894;29;20398;-74
2023/02/25 02:51:14;;;;;;;74.68;35.45;;;7.40;99.90;;;;;;4900738;29;20468;-73
2023/02/25 02:53:48;;;;;;;62.90;29.15;;;7.40;99.90;;;;;;4897321;29;20037;-75
2023/02/25 02:56:16;;;;;;;59.97;30.63;;;7.50;99.90;;;;;;4901971;29;20041;-74
2023/02/25 02:59:00;;;;;;;79.47;35.00;;;7.70;99.90;;;;;;4900132;29;20615;-74
2023/02/25 03:01:36;;;;;;;67.15;29.30;;;7.40;99.90;;;;;;4900951;29;20071;-74
2023/02/25 03:04:06;;;;;;;67.35;30.27;;;7.30;99.90;;;;;;4901272;29;20399;-75
2023/02/25 03:06:37;;;;;;;68.95;34.33;;;7.30;99.90;;;;;;4906182;29;20098;-74
2023/02/25 03:09:14;;;;;;;64.88;32.72;;;7.30;99.90;;;;;;4905970;29;20039;-74
2023/02/25 03:11:40;;;;;;;65.72;28.80;;;7.30;99.90;;;;;;4897541;29;20041;-74
2023/02/25 03:14:07;;;;;;;59.13;28.48;;;7.20;99.90;;;;;;4901352;29;20033;-73
2023/02/25 03:16:40;;;;;;;71.97;31.95;;;7.00;99.90;;;;;;4897506;29;20123;-74
2023/02/25 03:19:17;;;;;;;74.97;34.25;;;7.10;99.90;;;;;;4901755;29;20035;-75
2023/02/25 03:21:51;;;;;;;74.32;34.00;;;7.10;99.90;;;;;;4897602;29;20040;-75
2023/02/25 03:24:21;;;;;;;72.80;35.72;;;7.10;99.90;;;;;;4904609;29;20039;-74
2023/02/25 03:26:51;;;;;;;77.78;35.42;;;7.10;99.90;;;;;;4901838;29;20033;-74
2023/02/25 03:29:20;;;;;;;83.07;36.47;;;7.10;99.90;;;;;;4897768;29;20044;-74
2023/02/25 03:32:04;;;;;;;84.05;38.53;;;7.20;99.90;;;;;;4894400;29;20032;-75
2023/02/25 03:34:39;;;;;;;87.70;40.03;;;7.00;99.90;;;;;;4900412;29;20483;-74
2023/02/25 03:37:13;;;;;;;82.50;38.10;;;7.00;99.90;;;;;;4901886;29;20039;-74
2023/02/25 03:39:45;;;;;;;72.70;33.15;;;7.10;99.90;;;;;;4896836;29;20040;-74
2023/02/25 03:42:15;;;;;;;75.97;36.05;;;7.10;99.90;;;;;;4899816;29;20067;-75
2023/02/25 03:44:47;;;;;;;78.40;35.70;;;7.10;99.90;;;;;;4895955;29;20041;-73
2023/02/25 03:47:14;;;;;;;85.75;39.50;;;7.00;99.90;;;;;;4901161;29;20401;-75
2023/02/25 03:50:03;;;;;;;83.65;40.40;;;7.00;99.90;;;;;;4894974;29;20040;-74
2023/02/25 03:52:29;;;;;;;75.20;36.58;;;7.00;99.90;;;;;;4895293;29;20033;-74
2023/02/25 03:54:57;;;;;;;89.53;38.63;;;7.00;99.90;;;;;;4894306;29;20036;-74
2023/02/25 03:57:26;;;;;;;86.93;39.00;;;7.00;99.90;;;;;;4902237;29;20036;-74
2023/02/25 03:59:55;;;;;;;83.68;39.47;;;6.90;99.90;;;;;;4904441;29;20120;-75
2023/02/25 04:02:27;;;;;;;81.55;42.45;;;6.90;99.90;;;;;;4898787;29;20490;-74
2023/02/25 04:04:53;;;;;;;87.13;40.88;;;6.90;99.90;;;;;;4891728;29;20051;-74
2023/02/25 04:07:18;;;;;;;81.20;37.60;;;6.90;99.90;;;;;;4900283;29;20632;-75
2023/02/25 04:09:44;;;;;;;90.25;41.38;;;6.80;99.90;;;;;;4892680;29;20068;-74
2023/02/25 04:12:09;;;;;;;92.00;42.17;;;6.80;99.90;;;;;;4889960;29;20415;-75
2023/02/25 04:14:35;;;;;;;84.85;40.03;;;6.70;99.90;;;;;;4892575;29;20044;-75
2023/02/25 04:17:03;;;;;;;81.88;40.17;;;6.80;99.90;;;;;;4888886;29;20036;-75
2023/02/25 04:19:29;;;;;;;89.22;40.95;;;6.80;99.90;;;;;;4886447;29;20033;-75
2023/02/25 04:21:54;;;;;;;89.25;40.92;;;6.80;99.90;;;;;;4893616;29;20048;-75
2023/02/25 04:24:20;;;;;;;85.75;41.53;;;6.70;99.90;;;;;;4898932;29;20104;-76
2023/02/25 04:26:46;;;;;;;83.65;38.20;;;6.70;99.90;;;;;;4890553;29;20399;-75
2023/02/25 04:29:11;;;;;;;87.35;40.15;;;6.70;99.90;;;;;;4889712;29;20635;-75
2023/02/25 04:31:37;;;;;;;87.35;39.92;;;6.60;99.90;;;;;;4892311;29;20044;-74
2023/02/25 04:34:03;;;;;;;94.20;40.28;;;6.60;99.90;;;;;;4896292;29;20036;-75
2023/02/25 04:36:32;;;;;;;83.60;41.00;;;6.70;99.90;;;;;;4898651;29;20028;-75
2023/02/25 04:39:01;;;;;;;80.72;38.25;;;6.60;99.90;;;;;;4894802;29;20036;-75
2023/02/25 04:41:29;;;;;;;94.07;41.45;;;6.70;99.90;;;;;;4890908;29;20143;-75
2023/02/25 04:43:55;;;;;;;85.18;37.80;;;6.70;99.90;;;;;;4906165;29;20032;-75
2023/02/25 04:46:21;;;;;;;89.45;40.72;;;6.80;99.90;;;;;;4891376;29;20047;-75
2023/02/25 04:48:46;;;;;;;83.32;41.28;;;6.80;99.90;;;;;;4891610;29;20518;-74
2023/02/25 04:51:12;;;;;;;82.57;40.90;;;6.70;99.90;;;;;;4892216;29;20088;-75
2023/02/25 04:53:38;;;;;;;89.60;37.60;;;6.70;99.90;;;;;;4894137;29;20098;-74
2023/02/25 04:56:06;;;;;;;75.68;35.58;;;6.70;99.90;;;;;;4897677;29;20032;-75
2023/02/25 04:58:33;;;;;;;77.88;38.47;;;6.80;99.90;;;;;;4898691;29;20068;-75
2023/02/25 05:01:00;;;;;;;90.97;38.50;;;6.70;99.90;;;;;;4892860;29;20422;-74
2023/02/25 05:03:27;;;;;;;78.93;37.47;;;6.70;99.90;;;;;;4893564;29;20032;-75
2023/02/25 05:05:53;;;;;;;81.15;38.00;;;6.70;99.90;;;;;;4901913;29;20395;-76
2023/02/25 05:08:19;;;;;;;79.70;36.03;;;6.70;99.90;;;;;;4896761;29;20590;-76
2023/02/25 05:10:45;;;;;;;87.32;38.17;;;6.70;99.90;;;;;;4893684;29;20047;-75
2023/02/25 05:13:11;;;;;;;76.97;37.50;;;6.70;99.90;;;;;;4895667;29;20340;-75
2023/02/25 05:15:36;;;;;;;88.13;37.97;;;6.60;99.90;;;;;;4893837;29;20024;-75
2023/02/25 05:18:02;;;;;;;90.45;40.58;;;6.70;99.90;;;;;;4893899;29;20028;-77
2023/02/25 05:20:28;;;;;;;89.40;41.65;;;6.60;99.90;;;;;;4895500;29;20024;-76
2023/02/25 05:22:54;;;;;;;88.60;40.45;;;6.60;99.90;;;;;;4895249;29;20036;-75
2023/02/25 05:25:20;;;;;;;95.28;41.38;;;6.50;99.90;;;;;;4888515;29;20038;-76
2023/02/25 05:27:46;;;;;;;88.65;39.50;;;6.50;99.90;;;;;;4891909;29;20041;-75
2023/02/25 05:30:13;;;;;;;87.20;40.78;;;6.40;99.90;;;;;;4890490;29;20028;-75
2023/02/25 05:32:38;;;;;;;102.00;44.60;;;6.30;99.90;;;;;;4900264;29;20475;-76
2023/02/25 05:35:08;;;;;;;90.13;40.75;;;6.40;99.90;;;;;;4894499;29;20029;-75
2023/02/25 05:37:34;;;;;;;85.93;39.38;;;6.50;99.90;;;;;;4896827;29;20060;-76
2023/02/25 05:40:00;;;;;;;91.03;39.58;;;6.50;99.90;;;;;;4889224;29;20107;-76
2023/02/25 05:42:27;;;;;;;90.07;40.60;;;6.40;99.90;;;;;;4892281;29;20079;-76
2023/02/25 05:44:53;;;;;;;90.50;38.25;;;6.20;99.90;;;;;;4894558;29;20693;-76
2023/02/25 05:47:19;;;;;;;80.57;35.47;;;6.00;99.90;;;;;;4892770;29;20157;-76
2023/02/25 05:49:45;;;;;;;88.00;38.63;;;6.00;99.90;;;;;;4907682;29;20178;-76
2023/02/25 05:52:12;;;;;;;73.07;37.53;;;6.10;99.90;;;;;;4896401;29;20464;-75
2023/02/25 05:54:38;;;;;;;72.50;35.90;;;6.20;99.90;;;;;;4909739;29;20036;-76
2023/02/25 05:57:04;;;;;;;71.32;33.65;;;6.30;99.90;;;;;;4896423;29;20395;-75
2023/02/25 05:59:30;;;;;;;73.25;35.53;;;6.40;99.90;;;;;;4904878;29;20362;-76
2023/02/25 06:01:56;;;;;;;74.07;31.98;;;6.30;99.90;;;;;;4894734;29;20036;-76
2023/02/25 06:04:22;;;;;;;70.82;30.77;;;6.30;99.90;;;;;;4905269;29;20040;-75
2023/02/25 06:06:50;;;;;;;69.47;32.40;;;6.30;99.90;;;;;;4900030;29;20035;-75
2023/02/25 06:09:20;;;;;;;65.30;31.60;;;6.30;99.90;;;;;;4898016;29;20036;-76
2023/02/25 06:11:47;;;;;;;62.63;31.77;;;6.40;99.90;;;;;;4892700;29;20036;-75
2023/02/25 06:14:14;;;;;;;69.65;33.65;;;6.50;99.90;;;;;;4904212;29;20175;-75
2023/02/25 06:16:41;;;;;;;74.18;34.80;;;6.40;99.90;;;;;;4904583;29;20051;-75
2023/02/25 06:19:07;;;;;;;77.07;36.08;;;6.40;99.90;;;;;;4905393;29;20094;-76
2023/02/25 06:21:34;;;;;;;78.63;33.63;;;6.50;99.90;;;;;;4907684;29;20111;-75
2023/02/25 06:24:01;;;;;;;67.40;33.45;;;6.40;99.90;;;;;;4900553;29;20040;-76
2023/02/25 06:26:27;;;;;;;74.75;32.80;;;6.40;99.90;;;;;;4898065;29;20034;-76
2023/02/25 06:28:54;;;;;;;67.80;34.15;;;6.30;99.90;;;;;;4899565;29;20037;-76
2023/02/25 06:31:22;;;;;;;70.28;30.17;;;6.40;99.90;;;;;;4899217;29;20028;-76
2023/02/25 06:33:49;;;;;;;66.88;32.90;;;6.40;99.90;;;;;;4898413;29;20108;-76
2023/02/25 06:36:19;;;;;;;77.95;36.40;;;6.30;99.90;;;;;;4905240;29;20043;-76
2023/02/25 06:38:45;;;;;;;77.55;34.38;;;6.40;99.90;;;;;;4899016;29;20370;-76
2023/02/25 06:41:16;;;;;;;74.25;35.80;;;6.30;99.90;;;;;;4897312;29;20044;-76
2023/02/25 06:43:43;;;;;;;72.88;35.33;;;6.20;99.90;;;;;;4891522;29;20043;-76
2023/02/25 06:46:11;;;;;;;79.30;35.22;;;6.20;99.90;;;;;;4900186;29;20041;-76
2023/02/25 06:48:37;;;;;;;73.63;34.13;;;6.30;99.90;;;;;;4895370;29;20185;-75
2023/02/25 06:51:07;;;;;;;67.22;30.83;;;6.30;99.90;;;;;;4894694;29;20044;-76
2023/02/25 06:53:37;;;;;;;72.90;32.33;;;6.60;99.90;;;;;;4890948;29;20231;-75
2023/02/25 06:56:03;;;;;;;73.93;36.40;;;6.70;99.90;;;;;;4887387;29;20040;-76
2023/02/25 06:58:29;;;;;;;73.22;32.67;;;6.60;99.90;;;;;;4896871;29;20036;-76
2023/02/25 07:00:54;;;;;;;60.30;30.05;;;6.50;99.90;;;;;;4888380;29;20036;-77
2023/02/25 07:03:20;;;;;;;58.95;29.13;;;6.60;99.90;;;;;;4898666;29;20072;-75
2023/02/25 07:05:46;;;;;;;74.43;32.85;;;6.60;99.90;;;;;;4894183;29;21158;-76
2023/02/25 07:08:11;;;;;;;66.55;30.42;;;6.60;99.90;;;;;;4888480;29;20037;-78
2023/02/25 07:10:39;;;;;;;67.70;30.08;;;6.60;99.90;;;;;;4894407;29;20044;-75
2023/02/25 07:13:05;;;;;;;62.42;30.45;;;6.70;99.90;;;;;;4897068;29;20032;-74
2023/02/25 07:15:31;;;;;;;65.20;28.67;;;6.80;99.90;;;;;;4898656;29;20052;-74
2023/02/25 07:17:57;;;;;;;60.95;30.95;;;6.70;99.90;;;;;;4899138;29;20075;-77
2023/02/25 07:20:23;;;;;;;62.00;30.63;;;6.80;99.90;;;;;;4898826;29;20056;-74
2023/02/25 07:22:49;;;;;;;62.35;27.25;;;6.70;99.90;;;;;;4892794;29;20542;-74
2023/02/25 07:25:14;;;;;;;63.67;26.65;;;6.40;99.90;;;;;;4890049;29;20366;-73
2023/02/25 07:27:41;;;;;;;71.00;29.45;;;6.30;99.90;;;;;;4889663;29;20033;-73
2023/02/25 07:30:09;;;;;;;69.70;33.08;;;6.50;99.90;;;;;;4901761;29;20020;-72
2023/02/25 07:32:35;;;;;;;74.63;32.85;;;6.70;99.90;;;;;;4891910;29;20031;-73
2023/02/25 07:35:01;;;;;;;66.05;31.27;;;7.00;99.90;;;;;;4897755;29;20395;-72
2023/02/25 07:37:26;;;;;;;70.13;30.30;;;7.20;99.90;;;;;;4894412;29;20040;-74
2023/02/25 07:39:52;;;;;;;58.13;27.33;;;7.40;99.90;;;;;;4897098;29;20384;-73
2023/02/25 07:42:17;;;;;;;56.65;27.27;;;7.20;99.90;;;;;;4895654;29;20656;-74
2023/02/25 07:44:43;;;;;;;51.83;25.13;;;7.00;99.90;;;;;;4891790;29;20024;-74
2023/02/25 07:47:09;;;;;;;54.85;24.35;;;7.10;99.90;;;;;;4897237;29;20386;-73
2023/02/25 07:49:34;;;;;;;54.35;26.63;;;7.30;99.90;;;;;;4896994;29;20061;-73
2023/02/25 07:52:00;;;;;;;60.05;26.77;;;7.10;99.90;;;;;;4890085;29;20111;-73
2023/02/25 07:54:26;;;;;;;52.40;26.42;;;7.10;99.90;;;;;;4897011;29;20034;-73
2023/02/25 07:56:51;;;;;;;55.65;27.10;;;7.10;99.90;;;;;;4887712;29;20068;-73
2023/02/25 07:59:18;;;;;;;59.88;28.88;;;7.10;99.90;;;;;;4889581;29;20061;-73
2023/02/25 08:01:44;;;;;;;59.42;25.02;;;7.00;99.90;;;;;;4895605;29;20048;-73
2023/02/25 08:04:10;;;;;;;49.05;23.13;;;6.80;99.90;;;;;;4897050;29;20054;-72
2023/02/25 08:06:38;;;;;;;49.72;21.30;;;7.10;99.90;;;;;;4893288;29;20033;-72
2023/02/25 08:09:06;;;;;;;45.78;20.85;;;7.10;99.90;;;;;;4893228;29;20036;-73
2023/02/25 08:11:31;;;;;;;40.08;19.80;;;7.20;99.90;;;;;;4898518;29;20111;-73
2023/02/25 08:14:00;;;;;;;45.63;20.77;;;7.20;99.90;;;;;;4892308;29;20480;-73
2023/02/25 08:16:26;;;;;;;49.22;22.38;;;7.30;99.90;;;;;;4889356;29;20040;-72
2023/02/25 08:18:52;;;;;;;41.72;18.70;;;7.40;99.90;;;;;;4899130;29;20094;-73
2023/02/25 08:21:22;;;;;;;39.65;22.10;;;7.40;99.90;;;;;;4891357;29;20048;-72
2023/02/25 08:23:50;;;;;;;42.92;19.23;;;7.40;99.90;;;;;;4893961;29;20032;-73
2023/02/25 08:26:19;;;;;;;37.80;18.55;;;7.40;99.90;;;;;;4899695;29;20046;-72
2023/02/25 08:28:45;;;;;;;37.47;18.00;;;7.60;99.90;;;;;;4897416;29;20120;-73
2023/02/25 08:31:12;;;;;;;39.38;20.17;;;7.60;99.90;;;;;;4898573;29;20035;-73
2023/02/25 08:33:42;;;;;;;39.35;16.52;;;7.70;99.90;;;;;;4895982;29;20033;-73
2023/02/25 08:36:14;;;;;;;40.15;17.33;;;7.80;99.90;;;;;;4897342;29;20035;-73
2023/02/25 08:38:41;;;;;;;36.55;17.05;;;7.90;99.90;;;;;;4892033;29;20660;-73
2023/02/25 08:41:07;;;;;;;46.90;19.23;;;8.00;99.90;;;;;;4892383;29;20131;-73
2023/02/25 08:43:33;;;;;;;39.83;19.13;;;8.20;99.90;;;;;;4889906;29;20033;-73
2023/02/25 08:45:59;;;;;;;34.92;17.65;;;8.20;99.90;;;;;;4893980;29;20032;-73
2023/02/25 08:48:25;;;;;;;48.28;19.83;;;8.20;99.90;;;;;;4897367;29;20063;-73
2023/02/25 08:50:51;;;;;;;40.40;19.38;;;8.30;99.90;;;;;;4889528;29;20079;-73
2023/02/25 08:53:17;;;;;;;39.78;17.98;;;8.30;99.90;;;;;;4887444;29;20067;-73
2023/02/25 08:55:43;;;;;;;47.65;18.77;;;8.40;99.90;;;;;;4896875;29;20087;-74
2023/02/25 08:58:08;;;;;;;43.10;19.15;;;8.40;99.90;;;;;;4897735;29;20055;-75
2023/02/25 09:00:35;;;;;;;37.97;19.23;;;8.50;99.90;;;;;;4894889;29;20043;-73
2023/02/25 09:03:01;;;;;;;35.35;18.10;;;8.50;99.90;;;;;;4896041;29;20166;-74
2023/02/25 09:05:26;;;;;;;32.20;16.80;;;8.70;99.90;;;;;;4892980;29;20131;-74
2023/02/25 09:07:52;;;;;;;38.88;18.42;;;8.70;99.90;;;;;;4902020;29;20032;-74
2023/02/25 09:10:18;;;;;;;33.28;16.00;;;8.80;99.90;;;;;;4893648;29;20032;-74
2023/02/25 09:12:45;;;;;;;35.00;17.90;;;8.90;99.90;;;;;;4893356;29;20028;-74
2023/02/25 09:15:12;;;;;;;33.38;17.30;;;9.00;99.90;;;;;;4900411;29;20038;-74
2023/02/25 09:17:39;;;;;;;37.20;18.00;;;9.00;99.90;;;;;;4899626;29;20040;-74
2023/02/25 09:20:06;;;;;;;40.40;20.52;;;9.00;99.90;;;;;;4893606;29;20034;-74
2023/02/25 09:22:34;;;;;;;38.80;18.13;;;9.00;99.90;;;;;;4894627;29;20039;-73
2023/02/25 09:25:00;;;;;;;43.55;20.38;;;9.10;99.90;;;;;;4899734;29;20099;-73
2023/02/25 09:27:27;;;;;;;47.22;20.98;;;9.20;99.90;;;;;;4905187;29;20032;-73
2023/02/25 09:29:52;;;;;;;46.90;22.42;;;9.20;99.90;;;;;;4910109;29;20483;-73
2023/02/25 09:32:20;;;;;;;40.88;21.42;;;9.10;99.90;;;;;;4909341;29;20060;-72
2023/02/25 09:34:47;;;;;;;40.72;21.15;;;9.10;99.90;;;;;;4911503;29;20032;-73
2023/02/25 09:37:18;;;;;;;39.97;21.77;;;9.20;99.90;;;;;;4908784;29;20032;-74
2023/02/25 09:39:45;;;;;;;40.92;20.95;;;9.30;99.90;;;;;;4909951;29;20035;-75
2023/02/25 09:42:18;;;;;;;43.38;19.92;;;9.50;99.90;;;;;;4909104;29;20103;-72
2023/02/25 09:44:49;;;;;;;47.70;19.38;;;9.50;99.90;;;;;;4908286;29;20038;-73
2023/02/25 09:47:35;;;;;;;40.03;18.20;;;9.60;99.90;;;;;;4909501;29;20040;-74
2023/02/25 09:50:12;;;;;;;37.38;17.52;;;9.70;99.90;;;;;;4908540;29;20079;-73
2023/02/25 09:52:44;;;;;;;38.40;19.45;;;9.60;99.90;;;;;;4909772;29;20478;-73
2023/02/25 09:55:33;;;;;;;38.50;19.52;;;9.70;99.90;;;;;;4905673;29;20494;-74
2023/02/25 09:58:10;;;;;;;36.55;17.40;;;9.80;99.90;;;;;;4907947;29;20032;-73
2023/02/25 10:00:41;;;;;;;36.97;18.80;;;9.80;99.90;;;;;;4907962;29;20368;-72
2023/02/25 10:03:29;;;;;;;39.22;16.80;;;10.00;99.90;;;;;;4908505;29;20097;-73
2023/02/25 10:06:26;;;;;;;34.15;17.10;;;10.30;99.90;;;;;;4907358;29;20080;-73
2023/02/25 10:09:01;;;;;;;36.03;17.92;;;10.30;99.90;;;;;;4900371;29;20032;-74
2023/02/25 10:11:40;;;;;;;37.47;17.83;;;10.30;99.90;;;;;;4910319;29;20077;-72
2023/02/25 10:14:20;;;;;;;36.63;17.92;;;10.30;99.90;;;;;;4908971;29;20546;-73
2023/02/25 10:17:04;;;;;;;36.17;17.70;;;10.30;99.90;;;;;;4910694;29;20036;-73
2023/02/25 10:20:05;;;;;;;38.58;17.20;;;10.40;99.90;;;;;;4909474;29;20076;-72
2023/02/25 10:22:36;;;;;;;32.38;16.92;;;10.50;99.90;;;;;;4881678;29;20051;-72
2023/02/25 10:25:13;;;;;;;31.30;16.80;;;10.60;99.90;;;;;;4897208;29;20035;-74
2023/02/25 10:28:08;;;;;;;37.50;17.10;;;10.70;99.90;;;;;;4892024;29;20033;-72
2023/02/25 10:30:47;;;;;;;31.05;13.93;;;11.00;99.90;;;;;;4897478;29;20632;-73
2023/02/25 10:33:20;;;;;;;31.20;15.73;;;11.20;99.90;;;;;;4901446;29;20498;-73
2023/02/25 10:35:50;;;;;;;35.47;17.48;;;11.30;99.90;;;;;;4895114;29;20059;-73
2023/02/25 10:38:16;;;;;;;35.83;16.75;;;11.20;99.90;;;;;;4893973;29;20039;-72
2023/02/25 10:40:41;;;;;;;38.83;18.58;;;11.40;99.90;;;;;;4897020;29;20037;-75
2023/02/25 10:43:22;;;;;;;34.65;17.15;;;11.40;99.90;;;;;;4897587;29;20080;-74
2023/02/25 10:46:01;;;;;;;33.05;16.20;;;11.40;99.90;;;;;;4904329;29;20040;-73
2023/02/25 10:48:28;;;;;;;34.58;18.70;;;11.30;99.90;;;;;;4893094;29;20115;-75
2023/02/25 10:51:13;;;;;;;32.05;16.38;;;11.20;99.90;;;;;;4895586;29;20032;-75
2023/02/25 10:53:58;;;;;;;34.03;16.42;;;11.30;99.90;;;;;;4897441;29;20039;-75
2023/02/25 10:56:42;;;;;;;29.38;14.68;;;11.40;99.90;;;;;;4893582;29;20164;-73
2023/02/25 10:59:26;;;;;;;34.60;15.68;;;11.70;99.90;;;;;;4897447;29;20040;-74
2023/02/25 11:01:53;;;;;;;37.83;16.33;;;11.90;99.90;;;;;;4896294;29;20072;-73
2023/02/25 11:04:24;;;;;;;35.70;15.77;;;12.20;99.80;;;;;;4897101;29;20670;-75
2023/02/25 11:06:50;;;;;;;32.65;16.08;;;12.10;99.40;;;;;;4892368;29;20472;-74
2023/02/25 11:09:18;;;;;;;33.63;16.58;;;12.30;99.30;;;;;;4891844;29;20115;-73
2023/02/25 11:11:55;;;;;;;34.28;13.98;;;12.30;99.00;;;;;;4893838;29;20032;-75
2023/02/25 11:14:27;;;;;;;34.28;15.50;;;12.10;98.80;;;;;;4891399;29;20171;-77
2023/02/25 11:17:01;;;;;;;31.67;15.68;;;12.20;98.80;;;;;;4891013;29;20040;-75
2023/02/25 11:19:31;;;;;;;32.47;15.68;;;12.40;99.30;;;;;;4891244;29;20032;-75
2023/02/25 11:21:59;;;;;;;26.10;15.15;;;12.50;98.70;;;;;;4898704;29;20044;-74
2023/02/25 11:24:36;;;;;;;24.95;13.68;;;12.80;98.10;;;;;;4891459;29;20045;-76
2023/02/25 11:27:05;;;;;;;29.02;15.55;;;13.00;98.10;;;;;;4892264;29;20921;-78
2023/02/25 11:29:35;;;;;;;35.17;14.73;;;13.10;97.80;;;;;;4893382;29;20025;-75
2023/02/25 11:32:11;;;;;;;32.72;14.68;;;13.20;98.50;;;;;;4890423;29;20053;-74
2023/02/25 11:34:47;;;;;;;28.52;14.25;;;13.30;97.20;;;;;;4890461;29;20076;-77
2023/02/25 11:37:47;;;;;;;23.17;12.60;;;13.20;97.30;;;;;;4895210;29;20028;-75
2023/02/25 11:40:31;;;;;;;26.38;11.98;;;13.30;97.30;;;;;;4869661;29;20044;-75
2023/02/25 11:43:05;;;;;;;30.42;12.27;;;13.50;97.70;;;;;;4892391;29;20040;-75
2023/02/25 11:45:39;;;;;;;;;;;14.00;97.00;;;;;;4893716;29;20065;-75
2023/02/25 11:48:20;;;;;;;24.08;12.55;;;14.00;96.40;;;;;;4899188;29;19950;-75
2023/02/25 11:51:24;;;;;;;26.08;11.25;;;14.00;96.40;;;;;;4897751;29;20072;-75
2023/02/25 11:54:18;;;;;;;31.98;12.77;;;14.10;96.30;;;;;;4886673;29;20055;-75
2023/02/25 11:57:39;;;;;;;18.52;9.27;;;13.80;95.90;;;;;;4893693;29;20043;-74
2023/02/25 12:00:04;;;;;;;22.13;9.88;;;14.20;95.50;;;;;;4868222;29;20052;-74
2023/02/25 12:03:09;;;;;;;27.67;10.57;;;14.20;95.40;;;;;;4888358;29;20044;-73
2023/02/25 12:05:59;;;;;;;25.40;9.10;;;14.30;96.00;;;;;;4889814;29;20033;-74
2023/02/25 12:08:40;;;;;;;19.13;9.20;;;14.40;94.70;;;;;;4890700;29;20659;-75
2023/02/25 12:11:23;;;;;;;25.27;10.05;;;14.30;94.90;;;;;;4888371;29;20706;-75
2023/02/25 12:13:52;;;;;;;19.05;8.00;;;14.50;95.20;;;;;;4892504;29;20055;-75
2023/02/25 12:17:09;;;;;;;18.00;7.68;;;14.30;94.50;;;;;;4885857;29;20032;-75
2023/02/25 12:20:00;;;;;;;21.50;6.65;;;14.50;94.40;;;;;;4878040;29;20629;-74
2023/02/25 12:23:03;;;;;;;17.00;6.22;;;14.70;94.10;;;;;;4875376;29;20056;-75
2023/02/25 12:26:05;;;;;;;16.48;6.65;;;14.70;93.70;;;;;;4886001;29;20031;-74
2023/02/25 12:28:43;;;;;;;17.55;6.63;;;14.70;93.90;;;;;;4870405;29;20537;-74
2023/02/25 12:31:27;;;;;;;28.23;7.20;;;14.60;93.60;;;;;;4892403;29;20039;-74
2023/02/25 12:34:07;;;;;;;15.65;6.53;;;14.70;93.80;;;;;;4890877;29;20063;-75
2023/02/25 12:36:45;;;;;;;20.73;8.18;;;14.90;93.90;;;;;;4891303;29;20056;-76
2023/02/25 12:39:17;;;;;;;23.33;9.02;;;14.70;93.60;;;;;;4894723;29;20033;-78
2023/02/25 12:42:01;;;;;;;16.27;7.93;;;14.60;93.80;;;;;;4887564;29;20055;-76
2023/02/25 12:44:30;;;;;;;17.08;7.30;;;14.80;94.20;;;;;;4886282;29;20040;-77
2023/02/25 12:47:00;;;;;;;20.98;9.27;;;14.80;94.10;;;;;;4887595;29;20037;-77
2023/02/25 12:49:59;;;;;;;17.98;7.57;;;14.90;94.50;;;;;;4895469;29;20079;-77
2023/02/25 12:52:52;;;;;;;19.23;7.57;;;15.60;93.40;;;;;;4890371;29;20353;-76
2023/02/25 12:55:36;;;;;;;19.35;7.07;;;15.40;92.80;;;;;;4898374;29;20055;-76
2023/02/25 12:58:34;;;;;;;21.90;8.75;;;15.50;93.00;;;;;;4887731;29;20088;-77